sensor_id;sensor_type;location;lat;lon;timestamp;pressure;altitude;pressure_sealevel;temperature;humidity
77149;BME280;66122;47.130;16.844;2023-07-20T00:05:48;99112.66;;;18.47;100.00
77149;BME280;66122;47.130;16.844;2023-07-20T00:15:51;99108.53;;;18.53;100.00
77149;BME280;66122;47.130;16.844;2023-07-20T00:25:54;99126.66;;;18.41;100.00
77149;BME280;66122;47.130;16.844;2023-07-20T00:35:57;99135.53;;;18.05;100.00
77149;BME280;66122;47.130;16.844;2023-07-20T00:46:00;99144.97;;;18.09;100.00
77149;BME280;66122;47.130;16.844;2023-07-20T00:56:05;99126.38;;;18.07;100.00
77149;BME280;66122;47.130;16.844;2023-07-20T01:16:15;99151.63;;;18.05;100.00
77149;BME280;66122;47.130;16.844;2023-07-20T01:36:34;99177.88;;;18.11;100.00
77149;BME280;66122;47.130;16.844;2023-07-20T01:46:37;99174.78;;;18.15;100.00
77149;BME280;66122;47.130;16.844;2023-07-20T01:56:40;99170.22;;;18.25;100.00
77149;BME280;66122;47.130;16.844;2023-07-20T02:06:48;99175.22;;;18.48;100.00
77149;BME280;66122;47.130;16.844;2023-07-20T02:16:51;99158.56;;;18.44;100.00
77149;BME280;66122;47.130;16.844;2023-07-20T02:27:02;99168.50;;;18.34;100.00
77149;BME280;66122;47.130;16.844;2023-07-20T02:37:05;99180.72;;;18.46;100.00
77149;BME280;66122;47.130;16.844;2023-07-20T02:47:08;99196.59;;;18.30;100.00
77149;BME280;66122;47.130;16.844;2023-07-20T02:57:11;99198.75;;;18.17;100.00
77149;BME280;66122;47.130;16.844;2023-07-20T03:07:14;99206.06;;;18.34;100.00
77149;BME280;66122;47.130;16.844;2023-07-20T03:17:16;99207.63;;;18.27;100.00
77149;BME280;66122;47.130;16.844;2023-07-20T03:27:21;99218.59;;;18.43;100.00
77149;BME280;66122;47.130;16.844;2023-07-20T03:37:24;99205.19;;;18.43;100.00
77149;BME280;66122;47.130;16.844;2023-07-20T03:47:27;99224.91;;;18.52;100.00
77149;BME280;66122;47.130;16.844;2023-07-20T03:57:30;99207.94;;;18.70;100.00
77149;BME280;66122;47.130;16.844;2023-07-20T04:07:35;99215.19;;;18.88;100.00
77149;BME280;66122;47.130;16.844;2023-07-20T04:17:45;99221.88;;;19.11;100.00
77149;BME280;66122;47.130;16.844;2023-07-20T04:27:53;99231.81;;;19.56;100.00
77149;BME280;66122;47.130;16.844;2023-07-20T04:37:56;99236.28;;;19.65;100.00
77149;BME280;66122;47.130;16.844;2023-07-20T04:48:00;99240.25;;;19.96;100.00
77149;BME280;66122;47.130;16.844;2023-07-20T04:58:06;99258.69;;;19.91;100.00
77149;BME280;66122;47.130;16.844;2023-07-20T05:08:11;99278.16;;;20.38;100.00
77149;BME280;66122;47.130;16.844;2023-07-20T05:18:18;99261.81;;;20.40;100.00
77149;BME280;66122;47.130;16.844;2023-07-20T05:28:24;99259.28;;;21.82;93.28
77149;BME280;66122;47.130;16.844;2023-07-20T05:38:27;99275.13;;;21.85;90.54
77149;BME280;66122;47.130;16.844;2023-07-20T05:48:35;99261.84;;;22.48;89.34
77149;BME280;66122;47.130;16.844;2023-07-20T05:58:41;99279.28;;;23.56;79.83
77149;BME280;66122;47.130;16.844;2023-07-20T06:08:45;99289.50;;;23.38;76.80
77149;BME280;66122;47.130;16.844;2023-07-20T06:18:48;99286.63;;;23.70;75.04
77149;BME280;66122;47.130;16.844;2023-07-20T06:28:51;99296.31;;;24.19;74.26
77149;BME280;66122;47.130;16.844;2023-07-20T06:38:54;99300.00;;;25.01;68.81
77149;BME280;66122;47.130;16.844;2023-07-20T06:48:59;99291.16;;;25.57;59.24
77149;BME280;66122;47.130;16.844;2023-07-20T06:59:05;99297.75;;;25.99;52.23
77149;BME280;66122;47.130;16.844;2023-07-20T07:09:08;99296.19;;;27.78;50.44
77149;BME280;66122;47.130;16.844;2023-07-20T07:19:12;99306.69;;;27.06;49.46
77149;BME280;66122;47.130;16.844;2023-07-20T07:29:17;99305.13;;;28.40;45.35
77149;BME280;66122;47.130;16.844;2023-07-20T07:39:20;99313.94;;;28.48;45.22
77149;BME280;66122;47.130;16.844;2023-07-20T07:49:27;99310.38;;;28.41;43.88
77149;BME280;66122;47.130;16.844;2023-07-20T07:59:30;99315.94;;;27.93;44.40
77149;BME280;66122;47.130;16.844;2023-07-20T08:09:33;99330.56;;;26.19;48.04
77149;BME280;66122;47.130;16.844;2023-07-20T08:19:46;99340.50;;;26.26;47.84
77149;BME280;66122;47.130;16.844;2023-07-20T08:29:48;99339.88;;;27.57;45.70
77149;BME280;66122;47.130;16.844;2023-07-20T08:39:52;99346.28;;;27.90;44.60
77149;BME280;66122;47.130;16.844;2023-07-20T08:49:56;99343.91;;;28.15;42.77
77149;BME280;66122;47.130;16.844;2023-07-20T09:00:03;99338.75;;;28.60;40.00
77149;BME280;66122;47.130;16.844;2023-07-20T09:10:13;99336.22;;;28.52;43.08
77149;BME280;66122;47.130;16.844;2023-07-20T09:20:18;99335.75;;;29.40;40.81
77149;BME280;66122;47.130;16.844;2023-07-20T09:30:27;99322.31;;;30.66;38.14
77149;BME280;66122;47.130;16.844;2023-07-20T09:40:37;99330.63;;;31.02;34.52
77149;BME280;66122;47.130;16.844;2023-07-20T09:50:49;99319.56;;;30.66;33.71
77149;BME280;66122;47.130;16.844;2023-07-20T10:00:54;99322.22;;;30.54;33.99
77149;BME280;66122;47.130;16.844;2023-07-20T10:11:00;99325.53;;;31.31;32.92
77149;BME280;66122;47.130;16.844;2023-07-20T10:21:06;99310.16;;;31.05;33.68
77149;BME280;66122;47.130;16.844;2023-07-20T10:31:13;99313.78;;;30.99;33.75
77149;BME280;66122;47.130;16.844;2023-07-20T10:51:27;99311.03;;;31.97;32.78
77149;BME280;66122;47.130;16.844;2023-07-20T11:01:30;99299.78;;;31.87;32.73
77149;BME280;66122;47.130;16.844;2023-07-20T11:11:35;99297.91;;;30.89;34.52
77149;BME280;66122;47.130;16.844;2023-07-20T11:21:43;99295.28;;;31.56;34.27
77149;BME280;66122;47.130;16.844;2023-07-20T11:32:03;99291.63;;;30.33;34.48
77149;BME280;66122;47.130;16.844;2023-07-20T11:42:08;99285.78;;;29.20;36.09
77149;BME280;66122;47.130;16.844;2023-07-20T11:52:13;99285.44;;;28.44;42.52
77149;BME280;66122;47.130;16.844;2023-07-20T12:02:18;99277.69;;;28.81;39.90
77149;BME280;66122;47.130;16.844;2023-07-20T12:12:20;99262.25;;;30.71;37.27
77149;BME280;66122;47.130;16.844;2023-07-20T12:22:23;99245.84;;;30.71;36.30
77149;BME280;66122;47.130;16.844;2023-07-20T12:32:25;99239.22;;;32.18;32.27
77149;BME280;66122;47.130;16.844;2023-07-20T12:42:28;99247.50;;;29.40;38.63
77149;BME280;66122;47.130;16.844;2023-07-20T12:52:31;99261.69;;;29.04;38.61
77149;BME280;66122;47.130;16.844;2023-07-20T13:02:33;99261.44;;;29.12;39.77
77149;BME280;66122;47.130;16.844;2023-07-20T13:12:38;99272.84;;;29.02;39.81
77149;BME280;66122;47.130;16.844;2023-07-20T13:22:41;99268.59;;;28.14;41.72
77149;BME280;66122;47.130;16.844;2023-07-20T13:32:44;99284.56;;;27.15;50.61
77149;BME280;66122;47.130;16.844;2023-07-20T13:42:47;99305.13;;;25.54;62.44
77149;BME280;66122;47.130;16.844;2023-07-20T13:52:50;99337.81;;;23.88;71.36
77149;BME280;66122;47.130;16.844;2023-07-20T14:02:53;99351.97;;;22.15;83.71
77149;BME280;66122;47.130;16.844;2023-07-20T14:12:59;99312.81;;;22.03;89.77
77149;BME280;66122;47.130;16.844;2023-07-20T14:23:02;99314.34;;;22.22;92.72
77149;BME280;66122;47.130;16.844;2023-07-20T14:33:07;99312.13;;;22.49;92.21
77149;BME280;66122;47.130;16.844;2023-07-20T14:43:11;99310.75;;;22.94;89.00
77149;BME280;66122;47.130;16.844;2023-07-20T14:53:22;99300.22;;;23.93;76.17
77149;BME280;66122;47.130;16.844;2023-07-20T15:03:37;99285.94;;;24.82;80.92
77149;BME280;66122;47.130;16.844;2023-07-20T15:13:40;99268.63;;;24.69;76.26
77149;BME280;66122;47.130;16.844;2023-07-20T15:23:45;99265.91;;;24.92;73.76
77149;BME280;66122;47.130;16.844;2023-07-20T15:33:53;99264.13;;;25.79;68.72
77149;BME280;66122;47.130;16.844;2023-07-20T15:43:56;99261.91;;;26.10;68.12
77149;BME280;66122;47.130;16.844;2023-07-20T15:53:58;99244.03;;;25.44;71.65
77149;BME280;66122;47.130;16.844;2023-07-20T16:04:01;99261.16;;;25.44;69.13
77149;BME280;66122;47.130;16.844;2023-07-20T16:14:05;99265.06;;;25.06;70.64
77149;BME280;66122;47.130;16.844;2023-07-20T16:24:09;99270.78;;;24.73;75.13
77149;BME280;66122;47.130;16.844;2023-07-20T16:34:15;99269.28;;;24.56;76.48
77149;BME280;66122;47.130;16.844;2023-07-20T16:44:18;99251.66;;;24.37;75.09
77149;BME280;66122;47.130;16.844;2023-07-20T16:54:21;99254.84;;;24.41;69.60
77149;BME280;66122;47.130;16.844;2023-07-20T17:04:24;99268.25;;;24.20;71.72
77149;BME280;66122;47.130;16.844;2023-07-20T17:14:27;99262.47;;;24.14;71.91
77149;BME280;66122;47.130;16.844;2023-07-20T17:24:29;99273.66;;;24.20;74.43
77149;BME280;66122;47.130;16.844;2023-07-20T17:34:35;99276.94;;;23.84;74.85
77149;BME280;66122;47.130;16.844;2023-07-20T17:44:38;99272.47;;;23.68;79.56
77149;BME280;66122;47.130;16.844;2023-07-20T17:54:42;99277.84;;;23.38;74.44
77149;BME280;66122;47.130;16.844;2023-07-20T18:04:45;99268.78;;;23.14;75.08
77149;BME280;66122;47.130;16.844;2023-07-20T18:14:48;99264.47;;;23.05;74.30
77149;BME280;66122;47.130;16.844;2023-07-20T18:24:51;99273.97;;;22.77;82.05
77149;BME280;66122;47.130;16.844;2023-07-20T18:34:54;99276.84;;;22.83;86.36
77149;BME280;66122;47.130;16.844;2023-07-20T18:44:58;99288.53;;;22.43;94.83
77149;BME280;66122;47.130;16.844;2023-07-20T18:55:00;99291.91;;;22.37;96.19
77149;BME280;66122;47.130;16.844;2023-07-20T19:05:03;99290.72;;;22.07;99.25
77149;BME280;66122;47.130;16.844;2023-07-20T19:15:07;99310.72;;;21.80;100.00
77149;BME280;66122;47.130;16.844;2023-07-20T19:25:12;99325.66;;;21.59;100.00
77149;BME280;66122;47.130;16.844;2023-07-20T19:35:15;99345.88;;;21.21;100.00
77149;BME280;66122;47.130;16.844;2023-07-20T19:45:24;99346.91;;;21.02;100.00
77149;BME280;66122;47.130;16.844;2023-07-20T19:55:27;99363.75;;;20.78;100.00
77149;BME280;66122;47.130;16.844;2023-07-20T20:05:32;99377.66;;;20.48;100.00
77149;BME280;66122;47.130;16.844;2023-07-20T20:15:40;99369.50;;;20.40;100.00
77149;BME280;66122;47.130;16.844;2023-07-20T20:25:47;99361.03;;;20.17;100.00
77149;BME280;66122;47.130;16.844;2023-07-20T20:35:51;99353.22;;;20.32;100.00
77149;BME280;66122;47.130;16.844;2023-07-20T20:45:54;99361.63;;;20.11;100.00
77149;BME280;66122;47.130;16.844;2023-07-20T20:55:58;99354.84;;;20.24;100.00
77149;BME280;66122;47.130;16.844;2023-07-20T21:06:00;99354.78;;;19.99;100.00
77149;BME280;66122;47.130;16.844;2023-07-20T21:16:03;99368.44;;;19.60;100.00
77149;BME280;66122;47.130;16.844;2023-07-20T21:26:14;99377.91;;;19.27;100.00
77149;BME280;66122;47.130;16.844;2023-07-20T21:36:17;99375.09;;;19.29;100.00
77149;BME280;66122;47.130;16.844;2023-07-20T21:46:19;99387.69;;;19.65;100.00
77149;BME280;66122;47.130;16.844;2023-07-20T21:56:22;99388.47;;;19.48;100.00
77149;BME280;66122;47.130;16.844;2023-07-20T22:06:25;99392.81;;;19.59;100.00
77149;BME280;66122;47.130;16.844;2023-07-20T22:16:28;99387.03;;;19.54;100.00
77149;BME280;66122;47.130;16.844;2023-07-20T22:26:31;99392.25;;;19.45;100.00
77149;BME280;66122;47.130;16.844;2023-07-20T22:36:34;99406.50;;;19.19;100.00
77149;BME280;66122;47.130;16.844;2023-07-20T22:46:36;99392.75;;;18.85;100.00
77149;BME280;66122;47.130;16.844;2023-07-20T22:56:41;99387.41;;;18.65;100.00
77149;BME280;66122;47.130;16.844;2023-07-20T23:06:44;99382.59;;;18.69;100.00
77149;BME280;66122;47.130;16.844;2023-07-20T23:16:47;99393.59;;;18.66;100.00
77149;BME280;66122;47.130;16.844;2023-07-20T23:26:49;99395.56;;;18.54;100.00
77149;BME280;66122;47.130;16.844;2023-07-20T23:36:55;99391.88;;;18.84;100.00
77149;BME280;66122;47.130;16.844;2023-07-20T23:46:58;99400.69;;;18.57;100.00
77149;BME280;66122;47.130;16.844;2023-07-20T23:57:03;99388.78;;;18.50;100.00
